sensor_id;sensor_type;location;lat;lon;timestamp;pressure;altitude;pressure_sealevel;temperature;humidity
49315;BME280;36672;50.710;12.498;2023-02-18T00:01:46;98820.91;;;9.31;81.05
49315;BME280;36672;50.710;12.498;2023-02-18T00:04:11;98833.06;;;9.27;80.42
49315;BME280;36672;50.710;12.498;2023-02-18T00:06:37;98829.56;;;9.26;81.41
49315;BME280;36672;50.710;12.498;2023-02-18T00:09:03;98831.09;;;9.21;81.17
49315;BME280;36672;50.710;12.498;2023-02-18T00:11:30;98834.66;;;9.21;81.01
49315;BME280;36672;50.710;12.498;2023-02-18T00:13:56;98831.97;;;9.21;81.25
49315;BME280;36672;50.710;12.498;2023-02-18T00:16:22;98833.81;;;9.21;81.58
49315;BME280;36672;50.710;12.498;2023-02-18T00:18:48;98836.34;;;9.22;81.84
49315;BME280;36672;50.710;12.498;2023-02-18T00:21:13;98829.25;;;9.21;81.45
49315;BME280;36672;50.710;12.498;2023-02-18T00:23:38;98845.44;;;9.21;81.96
49315;BME280;36672;50.710;12.498;2023-02-18T00:26:05;98848.13;;;9.21;81.90
49315;BME280;36672;50.710;12.498;2023-02-18T00:28:30;98845.44;;;9.21;82.21
49315;BME280;36672;50.710;12.498;2023-02-18T00:30:56;98849.34;;;9.19;82.29
49315;BME280;36672;50.710;12.498;2023-02-18T00:33:21;98855.56;;;9.19;82.08
49315;BME280;36672;50.710;12.498;2023-02-18T00:35:46;98853.31;;;9.08;82.33
49315;BME280;36672;50.710;12.498;2023-02-18T00:38:12;98853.31;;;9.08;83.09
49315;BME280;36672;50.710;12.498;2023-02-18T00:40:37;98844.56;;;9.06;83.00
49315;BME280;36672;50.710;12.498;2023-02-18T00:43:03;98846.59;;;9.04;83.32
49315;BME280;36672;50.710;12.498;2023-02-18T00:45:28;98845.94;;;9.02;83.86
49315;BME280;36672;50.710;12.498;2023-02-18T00:47:53;98837.03;;;9.01;83.94
49315;BME280;36672;50.710;12.498;2023-02-18T00:50:19;98837.03;;;9.01;83.99
49315;BME280;36672;50.710;12.498;2023-02-18T00:52:44;98838.03;;;9.00;83.53
49315;BME280;36672;50.710;12.498;2023-02-18T00:55:09;98842.75;;;8.98;83.42
49315;BME280;36672;50.710;12.498;2023-02-18T00:57:34;98835.88;;;8.95;83.94
49315;BME280;36672;50.710;12.498;2023-02-18T00:59:59;98839.63;;;8.94;83.79
49315;BME280;36672;50.710;12.498;2023-02-18T01:02:25;98841.47;;;8.94;83.71
49315;BME280;36672;50.710;12.498;2023-02-18T01:04:50;98843.31;;;8.93;83.68
49315;BME280;36672;50.710;12.498;2023-02-18T01:07:15;98836.25;;;8.92;83.67
49315;BME280;36672;50.710;12.498;2023-02-18T01:09:40;98840.81;;;8.92;83.08
49315;BME280;36672;50.710;12.498;2023-02-18T01:12:06;98836.25;;;8.92;83.78
49315;BME280;36672;50.710;12.498;2023-02-18T01:14:31;98833.75;;;8.91;82.99
49315;BME280;36672;50.710;12.498;2023-02-18T01:16:56;98839.97;;;8.91;82.89
49315;BME280;36672;50.710;12.498;2023-02-18T01:19:21;98831.06;;;8.91;83.33
49315;BME280;36672;50.710;12.498;2023-02-18T01:21:46;98837.09;;;8.93;83.27
49315;BME280;36672;50.710;12.498;2023-02-18T01:24:12;98834.22;;;8.94;83.47
49315;BME280;36672;50.710;12.498;2023-02-18T01:26:37;98830.50;;;8.95;82.97
49315;BME280;36672;50.710;12.498;2023-02-18T01:29:02;98834.88;;;8.96;83.21
49315;BME280;36672;50.710;12.498;2023-02-18T01:31:27;98832.16;;;8.96;83.52
49315;BME280;36672;50.710;12.498;2023-02-18T01:33:52;98826.97;;;8.95;82.63
49315;BME280;36672;50.710;12.498;2023-02-18T01:36:18;98829.00;;;8.93;82.79
49315;BME280;36672;50.710;12.498;2023-02-18T01:38:43;98835.25;;;8.93;82.67
49315;BME280;36672;50.710;12.498;2023-02-18T01:41:08;98834.38;;;8.93;82.65
49315;BME280;36672;50.710;12.498;2023-02-18T01:43:34;98835.06;;;8.95;83.26
49315;BME280;36672;50.710;12.498;2023-02-18T01:48:29;98826.31;;;8.93;83.39
49315;BME280;36672;50.710;12.498;2023-02-18T01:50:59;98825.66;;;8.91;83.12
49315;BME280;36672;50.710;12.498;2023-02-18T01:53:27;98826.69;;;8.90;83.31
49315;BME280;36672;50.710;12.498;2023-02-18T01:55:53;98819.25;;;8.92;83.66
49315;BME280;36672;50.710;12.498;2023-02-18T01:58:19;98806.81;;;8.91;83.48
49315;BME280;36672;50.710;12.498;2023-02-18T02:00:45;98804.28;;;8.89;82.66
49315;BME280;36672;50.710;12.498;2023-02-18T02:03:10;98799.72;;;8.90;83.42
49315;BME280;36672;50.710;12.498;2023-02-18T02:05:35;98796.84;;;8.91;83.15
49315;BME280;36672;50.710;12.498;2023-02-18T02:08:01;98797.22;;;8.88;83.21
49315;BME280;36672;50.710;12.498;2023-02-18T02:10:29;98796.38;;;8.88;83.07
49315;BME280;36672;50.710;12.498;2023-02-18T02:15:40;98810.69;;;8.88;83.07
49315;BME280;36672;50.710;12.498;2023-02-18T02:32:53;98824.16;;;8.88;83.71
49315;BME280;36672;50.710;12.498;2023-02-18T02:48:04;98833.09;;;8.89;83.38
49315;BME280;36672;50.710;12.498;2023-02-18T02:50:35;98832.25;;;8.88;84.44
49315;BME280;36672;50.710;12.498;2023-02-18T02:53:10;98832.25;;;8.88;84.75
49315;BME280;36672;50.710;12.498;2023-02-18T02:55:37;98827.06;;;8.87;84.85
49315;BME280;36672;50.710;12.498;2023-02-18T02:58:02;98825.38;;;8.86;85.06
49315;BME280;36672;50.710;12.498;2023-02-18T03:00:33;98828.41;;;8.82;84.70
49315;BME280;36672;50.710;12.498;2023-02-18T03:10:55;98824.41;;;8.78;85.74
49315;BME280;36672;50.710;12.498;2023-02-18T03:13:25;98825.63;;;8.76;85.83
49315;BME280;36672;50.710;12.498;2023-02-18T03:18:45;98823.28;;;8.73;86.02
49315;BME280;36672;50.710;12.498;2023-02-18T03:21:14;98817.91;;;8.73;86.64
49315;BME280;36672;50.710;12.498;2023-02-18T03:23:48;98817.06;;;8.72;86.24
49315;BME280;36672;50.710;12.498;2023-02-18T03:26:17;98813.53;;;8.72;87.03
49315;BME280;36672;50.710;12.498;2023-02-18T03:28:45;98823.81;;;8.68;87.26
49315;BME280;36672;50.710;12.498;2023-02-18T03:31:14;98812.88;;;8.70;87.46
49315;BME280;36672;50.710;12.498;2023-02-18T03:33:42;98820.94;;;8.70;87.56
49315;BME280;36672;50.710;12.498;2023-02-18T03:36:09;98820.13;;;8.69;87.64
49315;BME280;36672;50.710;12.498;2023-02-18T03:38:39;98823.81;;;8.68;87.87
49315;BME280;36672;50.710;12.498;2023-02-18T03:41:06;98820.66;;;8.64;87.73
49315;BME280;36672;50.710;12.498;2023-02-18T03:43:31;98813.59;;;8.63;88.20
49315;BME280;36672;50.710;12.498;2023-02-18T03:45:57;98813.75;;;8.62;87.77
49315;BME280;36672;50.710;12.498;2023-02-18T03:48:22;98807.56;;;8.61;88.48
49315;BME280;36672;50.710;12.498;2023-02-18T03:50:48;98806.50;;;8.62;88.48
49315;BME280;36672;50.710;12.498;2023-02-18T03:53:13;98814.78;;;8.61;88.31
49315;BME280;36672;50.710;12.498;2023-02-18T03:55:38;98812.94;;;8.61;88.31
49315;BME280;36672;50.710;12.498;2023-02-18T03:58:03;98810.88;;;8.63;88.63
49315;BME280;36672;50.710;12.498;2023-02-18T04:00:29;98806.34;;;8.64;89.09
49315;BME280;36672;50.710;12.498;2023-02-18T04:02:54;98808.19;;;8.63;89.51
49315;BME280;36672;50.710;12.498;2023-02-18T04:05:19;98815.44;;;8.63;89.23
49315;BME280;36672;50.710;12.498;2023-02-18T04:07:45;98816.28;;;8.63;88.86
49315;BME280;36672;50.710;12.498;2023-02-18T04:10:10;98810.88;;;8.63;89.58
49315;BME280;36672;50.710;12.498;2023-02-18T04:12:35;98817.28;;;8.62;89.27
49315;BME280;36672;50.710;12.498;2023-02-18T04:15:00;98816.28;;;8.63;89.72
49315;BME280;36672;50.710;12.498;2023-02-18T04:17:26;98816.47;;;8.62;89.38
49315;BME280;36672;50.710;12.498;2023-02-18T04:19:51;98815.78;;;8.60;89.44
49315;BME280;36672;50.710;12.498;2023-02-18T04:22:16;98814.13;;;8.59;89.64
49315;BME280;36672;50.710;12.498;2023-02-18T04:24:41;98812.63;;;8.56;89.41
49315;BME280;36672;50.710;12.498;2023-02-18T04:27:06;98829.63;;;8.57;89.49
49315;BME280;36672;50.710;12.498;2023-02-18T04:29:32;98811.78;;;8.56;89.75
49315;BME280;36672;50.710;12.498;2023-02-18T04:31:57;98806.41;;;8.56;89.35
49315;BME280;36672;50.710;12.498;2023-02-18T04:34:22;98800.19;;;8.55;89.96
49315;BME280;36672;50.710;12.498;2023-02-18T04:36:47;98796.00;;;8.53;89.31
49315;BME280;36672;50.710;12.498;2023-02-18T04:39:12;98796.00;;;8.53;89.25
49315;BME280;36672;50.710;12.498;2023-02-18T04:41:38;98796.34;;;8.49;89.42
49315;BME280;36672;50.710;12.498;2023-02-18T04:44:03;98796.53;;;8.48;89.94
49315;BME280;36672;50.710;12.498;2023-02-18T04:46:28;98806.47;;;8.47;89.56
49315;BME280;36672;50.710;12.498;2023-02-18T04:48:54;98814.72;;;8.46;89.71
49315;BME280;36672;50.710;12.498;2023-02-18T04:51:19;98800.22;;;8.47;89.67
49315;BME280;36672;50.710;12.498;2023-02-18T04:53:44;98796.88;;;8.45;90.03
49315;BME280;36672;50.710;12.498;2023-02-18T04:56:10;98781.72;;;8.44;90.48
49315;BME280;36672;50.710;12.498;2023-02-18T04:58:35;98780.88;;;8.43;90.21
49315;BME280;36672;50.710;12.498;2023-02-18T05:01:01;98786.63;;;8.40;90.25
49315;BME280;36672;50.710;12.498;2023-02-18T05:03:27;98779.38;;;8.41;89.67
49315;BME280;36672;50.710;12.498;2023-02-18T05:05:52;98771.16;;;8.42;89.95
49315;BME280;36672;50.710;12.498;2023-02-18T05:08:17;98778.03;;;8.45;89.99
49315;BME280;36672;50.710;12.498;2023-02-18T05:10:43;98778.03;;;8.45;89.52
49315;BME280;36672;50.710;12.498;2023-02-18T05:13:08;98777.00;;;8.46;89.60
49315;BME280;36672;50.710;12.498;2023-02-18T05:15:33;98768.94;;;8.46;89.80
49315;BME280;36672;50.710;12.498;2023-02-18T05:17:59;98756.47;;;8.45;89.33
49315;BME280;36672;50.710;12.498;2023-02-18T05:20:24;98748.75;;;8.42;89.31
49315;BME280;36672;50.710;12.498;2023-02-18T05:22:49;98745.09;;;8.35;88.47
49315;BME280;36672;50.710;12.498;2023-02-18T05:25:14;98747.31;;;8.31;87.71
49315;BME280;36672;50.710;12.498;2023-02-18T05:27:40;98741.09;;;8.30;88.10
49315;BME280;36672;50.710;12.498;2023-02-18T05:30:05;98728.00;;;8.27;85.82
49315;BME280;36672;50.710;12.498;2023-02-18T05:32:31;98723.25;;;8.29;86.30
49315;BME280;36672;50.710;12.498;2023-02-18T05:34:56;98721.75;;;8.27;84.91
49315;BME280;36672;50.710;12.498;2023-02-18T05:37:21;98718.06;;;8.28;84.37
49315;BME280;36672;50.710;12.498;2023-02-18T05:39:46;98717.03;;;8.29;83.41
49315;BME280;36672;50.710;12.498;2023-02-18T05:42:12;98720.56;;;8.29;82.37
49315;BME280;36672;50.710;12.498;2023-02-18T05:44:37;98718.34;;;8.33;82.34
49315;BME280;36672;50.710;12.498;2023-02-18T05:47:06;98720.84;;;8.35;81.28
49315;BME280;36672;50.710;12.498;2023-02-18T05:49:32;98713.94;;;8.40;81.30
49315;BME280;36672;50.710;12.498;2023-02-18T05:51:58;98698.91;;;8.46;81.44
49315;BME280;36672;50.710;12.498;2023-02-18T05:54:23;98706.28;;;8.52;81.17
49315;BME280;36672;50.710;12.498;2023-02-18T05:56:49;98697.38;;;8.52;80.58
49315;BME280;36672;50.710;12.498;2023-02-18T05:59:14;98686.03;;;8.56;80.11
49315;BME280;36672;50.710;12.498;2023-02-18T06:01:39;98678.44;;;8.60;80.38
49315;BME280;36672;50.710;12.498;2023-02-18T06:04:05;98670.00;;;8.63;79.46
49315;BME280;36672;50.710;12.498;2023-02-18T06:06:30;98669.81;;;8.64;79.69
49315;BME280;36672;50.710;12.498;2023-02-18T06:08:55;98668.41;;;8.69;79.53
49315;BME280;36672;50.710;12.498;2023-02-18T06:11:21;98668.41;;;8.69;79.18
49315;BME280;36672;50.710;12.498;2023-02-18T06:13:46;98669.28;;;8.69;78.47
49315;BME280;36672;50.710;12.498;2023-02-18T06:16:11;98664.34;;;8.73;78.99
49315;BME280;36672;50.710;12.498;2023-02-18T06:18:36;98658.78;;;8.74;78.57
49315;BME280;36672;50.710;12.498;2023-02-18T06:21:02;98651.31;;;8.76;78.35
49315;BME280;36672;50.710;12.498;2023-02-18T06:23:27;98650.31;;;8.77;78.72
49315;BME280;36672;50.710;12.498;2023-02-18T06:25:53;98657.84;;;8.82;78.41
49315;BME280;36672;50.710;12.498;2023-02-18T06:28:18;98655.16;;;8.82;78.55
49315;BME280;36672;50.710;12.498;2023-02-18T06:30:43;98651.44;;;8.83;78.57
49315;BME280;36672;50.710;12.498;2023-02-18T06:33:09;98651.59;;;8.81;78.65
49315;BME280;36672;50.710;12.498;2023-02-18T06:35:34;98657.47;;;8.85;78.69
49315;BME280;36672;50.710;12.498;2023-02-18T06:37:59;98652.53;;;8.89;78.66
49315;BME280;36672;50.710;12.498;2023-02-18T06:40:24;98650.97;;;8.94;77.87
49315;BME280;36672;50.710;12.498;2023-02-18T06:42:50;98647.06;;;8.97;78.44
49315;BME280;36672;50.710;12.498;2023-02-18T06:45:15;98649.59;;;8.98;78.31
49315;BME280;36672;50.710;12.498;2023-02-18T06:47:40;98643.34;;;8.98;78.00
49315;BME280;36672;50.710;12.498;2023-02-18T06:50:06;98659.16;;;9.01;78.37
49315;BME280;36672;50.710;12.498;2023-02-18T06:52:31;98650.88;;;9.03;78.51
49315;BME280;36672;50.710;12.498;2023-02-18T06:54:58;98640.56;;;9.06;78.15
49315;BME280;36672;50.710;12.498;2023-02-18T06:57:23;98649.31;;;9.08;78.24
49315;BME280;36672;50.710;12.498;2023-02-18T06:59:48;98646.22;;;9.11;78.02
49315;BME280;36672;50.710;12.498;2023-02-18T07:02:14;98625.59;;;9.04;78.13
49315;BME280;36672;50.710;12.498;2023-02-18T07:04:39;98648.44;;;9.23;78.15
49315;BME280;36672;50.710;12.498;2023-02-18T07:07:04;98630.84;;;9.27;77.22
49315;BME280;36672;50.710;12.498;2023-02-18T07:09:29;98637.84;;;9.36;77.63
49315;BME280;36672;50.710;12.498;2023-02-18T07:11:55;98628.13;;;9.42;76.95
49315;BME280;36672;50.710;12.498;2023-02-18T07:14:20;98630.72;;;9.50;76.56
49315;BME280;36672;50.710;12.498;2023-02-18T07:16:45;98627.44;;;9.55;76.50
49315;BME280;36672;50.710;12.498;2023-02-18T07:19:10;98626.31;;;9.64;76.50
49315;BME280;36672;50.710;12.498;2023-02-18T07:21:36;98623.88;;;9.69;75.73
49315;BME280;36672;50.710;12.498;2023-02-18T07:24:01;98625.41;;;9.78;76.24
49315;BME280;36672;50.710;12.498;2023-02-18T07:26:26;98622.78;;;9.85;75.32
49315;BME280;36672;50.710;12.498;2023-02-18T07:28:51;98634.22;;;9.87;75.43
49315;BME280;36672;50.710;12.498;2023-02-18T07:31:16;98618.69;;;9.89;75.36
49315;BME280;36672;50.710;12.498;2023-02-18T07:33:42;98619.19;;;10.00;74.79
49315;BME280;36672;50.710;12.498;2023-02-18T07:36:07;98619.69;;;10.10;75.19
49315;BME280;36672;50.710;12.498;2023-02-18T07:38:33;98617.09;;;10.23;74.43
49315;BME280;36672;50.710;12.498;2023-02-18T07:40:58;98603.25;;;10.33;73.28
49315;BME280;36672;50.710;12.498;2023-02-18T07:43:24;98608.16;;;10.44;73.28
49315;BME280;36672;50.710;12.498;2023-02-18T07:45:49;98608.72;;;10.40;72.82
49315;BME280;36672;50.710;12.498;2023-02-18T07:48:14;98605.56;;;10.58;73.22
49315;BME280;36672;50.710;12.498;2023-02-18T07:50:40;98601.44;;;10.69;72.39
49315;BME280;36672;50.710;12.498;2023-02-18T07:53:06;98601.56;;;10.89;72.00
49315;BME280;36672;50.710;12.498;2023-02-18T07:55:31;98601.59;;;10.96;71.35
49315;BME280;36672;50.710;12.498;2023-02-18T07:58:22;98601.59;;;10.96;71.37
49315;BME280;36672;50.710;12.498;2023-02-18T08:00:49;98587.50;;;11.00;71.59
49315;BME280;36672;50.710;12.498;2023-02-18T08:03:15;98599.97;;;11.01;71.39
49315;BME280;36672;50.710;12.498;2023-02-18T08:05:41;98591.22;;;10.99;71.21
49315;BME280;36672;50.710;12.498;2023-02-18T08:08:06;98591.63;;;10.89;71.51
49315;BME280;36672;50.710;12.498;2023-02-18T08:10:31;98588.25;;;10.87;71.30
49315;BME280;36672;50.710;12.498;2023-02-18T08:12:56;98574.16;;;10.92;71.54
49315;BME280;36672;50.710;12.498;2023-02-18T08:15:22;98572.44;;;10.84;71.41
49315;BME280;36672;50.710;12.498;2023-02-18T08:17:47;98565.84;;;10.93;72.08
49315;BME280;36672;50.710;12.498;2023-02-18T08:20:12;98568.09;;;10.83;71.61
49315;BME280;36672;50.710;12.498;2023-02-18T08:22:38;98568.44;;;10.73;72.11
49315;BME280;36672;50.710;12.498;2023-02-18T08:25:03;98560.72;;;10.70;71.58
49315;BME280;36672;50.710;12.498;2023-02-18T08:27:28;98572.25;;;10.86;72.51
49315;BME280;36672;50.710;12.498;2023-02-18T08:29:54;98576.25;;;10.97;71.88
49315;BME280;36672;50.710;12.498;2023-02-18T08:32:19;98557.53;;;10.95;71.87
49315;BME280;36672;50.710;12.498;2023-02-18T08:34:45;98558.75;;;10.92;71.74
49315;BME280;36672;50.710;12.498;2023-02-18T08:37:10;98556.06;;;10.99;71.89
49315;BME280;36672;50.710;12.498;2023-02-18T08:39:36;98552.47;;;10.85;71.87
49315;BME280;36672;50.710;12.498;2023-02-18T08:42:02;98556.84;;;10.80;72.21
49315;BME280;36672;50.710;12.498;2023-02-18T08:44:27;98556.19;;;10.77;72.82
49315;BME280;36672;50.710;12.498;2023-02-18T08:46:52;98556.63;;;10.81;73.38
49315;BME280;36672;50.710;12.498;2023-02-18T08:49:18;98560.78;;;10.84;72.75
49315;BME280;36672;50.710;12.498;2023-02-18T08:51:48;98553.34;;;10.86;74.00
49315;BME280;36672;50.710;12.498;2023-02-18T08:54:13;98547.50;;;10.82;72.95
49315;BME280;36672;50.710;12.498;2023-02-18T08:56:39;98550.56;;;10.79;73.27
49315;BME280;36672;50.710;12.498;2023-02-18T08:59:04;98550.19;;;10.82;73.89
49315;BME280;36672;50.710;12.498;2023-02-18T09:01:29;98554.50;;;10.76;73.52
49315;BME280;36672;50.710;12.498;2023-02-18T09:03:55;98549.31;;;10.75;74.17
49315;BME280;36672;50.710;12.498;2023-02-18T09:06:20;98541.19;;;10.68;74.21
49315;BME280;36672;50.710;12.498;2023-02-18T09:08:45;98550.56;;;10.72;75.51
49315;BME280;36672;50.710;12.498;2023-02-18T09:11:11;98541.19;;;10.68;75.85
49315;BME280;36672;50.710;12.498;2023-02-18T09:13:36;98536.94;;;10.52;76.56
49315;BME280;36672;50.710;12.498;2023-02-18T09:16:03;98534.41;;;10.44;76.63
49315;BME280;36672;50.710;12.498;2023-02-18T09:18:29;98532.31;;;10.46;76.81
49315;BME280;36672;50.710;12.498;2023-02-18T09:20:55;98532.28;;;10.39;76.53
49315;BME280;36672;50.710;12.498;2023-02-18T09:23:21;98524.50;;;10.29;76.61
49315;BME280;36672;50.710;12.498;2023-02-18T09:25:46;98523.59;;;10.44;76.23
49315;BME280;36672;50.710;12.498;2023-02-18T09:28:12;98520.09;;;10.50;75.89
49315;BME280;36672;50.710;12.498;2023-02-18T09:30:38;98521.19;;;10.63;76.02
49315;BME280;36672;50.710;12.498;2023-02-18T09:33:03;98515.63;;;10.71;75.14
49315;BME280;36672;50.710;12.498;2023-02-18T09:35:29;98511.28;;;10.76;74.74
49315;BME280;36672;50.710;12.498;2023-02-18T09:37:54;98503.59;;;10.73;74.31
49315;BME280;36672;50.710;12.498;2023-02-18T09:40:26;98505.06;;;10.76;74.69
49315;BME280;36672;50.710;12.498;2023-02-18T09:42:53;98498.84;;;10.82;74.03
49315;BME280;36672;50.710;12.498;2023-02-18T09:45:20;98497.00;;;10.89;74.35
49315;BME280;36672;50.710;12.498;2023-02-18T09:47:45;98499.72;;;10.96;73.84
49315;BME280;36672;50.710;12.498;2023-02-18T09:50:19;98498.28;;;11.00;73.96
49315;BME280;36672;50.710;12.498;2023-02-18T09:52:45;98499.75;;;11.03;73.48
49315;BME280;36672;50.710;12.498;2023-02-18T09:58:01;98481.47;;;11.18;72.94
49315;BME280;36672;50.710;12.498;2023-02-18T10:00:32;98480.44;;;11.26;73.07
49315;BME280;36672;50.710;12.498;2023-02-18T10:03:10;98490.66;;;11.24;73.48
49315;BME280;36672;50.710;12.498;2023-02-18T10:05:36;98494.16;;;11.24;73.20
49315;BME280;36672;50.710;12.498;2023-02-18T10:08:06;98492.94;;;11.27;73.61
49315;BME280;36672;50.710;12.498;2023-02-18T10:13:00;98493.13;;;11.25;73.37
49315;BME280;36672;50.710;12.498;2023-02-18T10:15:27;98488.59;;;11.33;73.38
49315;BME280;36672;50.710;12.498;2023-02-18T10:17:53;98461.94;;;11.30;73.23
49315;BME280;36672;50.710;12.498;2023-02-18T10:20:22;98472.16;;;11.28;73.05
49315;BME280;36672;50.710;12.498;2023-02-18T10:22:48;98480.44;;;11.26;72.97
49315;BME280;36672;50.710;12.498;2023-02-18T10:25:16;98487.72;;;11.19;73.28
49315;BME280;36672;50.710;12.498;2023-02-18T10:27:42;98481.06;;;11.21;73.28
49315;BME280;36672;50.710;12.498;2023-02-18T10:32:41;98470.47;;;11.26;72.05
49315;BME280;36672;50.710;12.498;2023-02-18T10:35:18;98471.28;;;11.20;72.05
49315;BME280;36672;50.710;12.498;2023-02-18T10:37:56;98469.44;;;11.28;70.94
49315;BME280;36672;50.710;12.498;2023-02-18T10:45:43;98463.19;;;11.27;70.91
49315;BME280;36672;50.710;12.498;2023-02-18T10:50:49;98451.13;;;11.30;70.49
49315;BME280;36672;50.710;12.498;2023-02-18T10:55:41;98445.72;;;11.30;69.83
49315;BME280;36672;50.710;12.498;2023-02-18T11:00:51;98450.47;;;11.14;69.75
49315;BME280;36672;50.710;12.498;2023-02-18T11:05:42;98450.84;;;10.98;70.11
49315;BME280;36672;50.710;12.498;2023-02-18T11:08:10;98435.88;;;10.95;69.54
49315;BME280;36672;50.710;12.498;2023-02-18T11:10:39;98437.56;;;11.03;69.95
49315;BME280;36672;50.710;12.498;2023-02-18T11:13:06;98437.16;;;11.06;69.62
49315;BME280;36672;50.710;12.498;2023-02-18T11:15:32;98433.59;;;11.05;69.89
49315;BME280;36672;50.710;12.498;2023-02-18T11:18:44;98433.41;;;11.07;69.50
49315;BME280;36672;50.710;12.498;2023-02-18T11:20:43;98424.47;;;11.00;69.73
49315;BME280;36672;50.710;12.498;2023-02-18T11:23:19;98430.47;;;10.95;69.10
49315;BME280;36672;50.710;12.498;2023-02-18T11:25:52;98446.25;;;10.91;68.55
49315;BME280;36672;50.710;12.498;2023-02-18T11:30:45;98436.22;;;10.72;68.95
49315;BME280;36672;50.710;12.498;2023-02-18T11:33:22;98445.34;;;10.64;69.22
49315;BME280;36672;50.710;12.498;2023-02-18T11:35:52;98424.94;;;10.55;68.39
49315;BME280;36672;50.710;12.498;2023-02-18T11:38:22;98437.84;;;10.53;68.26
49315;BME280;36672;50.710;12.498;2023-02-18T11:40:53;98424.50;;;10.51;68.87
49315;BME280;36672;50.710;12.498;2023-02-18T11:43:19;98429.28;;;10.49;68.44
49315;BME280;36672;50.710;12.498;2023-02-18T11:45:44;98426.41;;;10.57;68.87
49315;BME280;36672;50.710;12.498;2023-02-18T11:50:35;98438.00;;;10.51;67.47
49315;BME280;36672;50.710;12.498;2023-02-18T11:53:16;98418.88;;;10.46;67.06
49315;BME280;36672;50.710;12.498;2023-02-18T11:55:52;98409.94;;;10.39;67.48
49315;BME280;36672;50.710;12.498;2023-02-18T11:58:18;98410.50;;;10.34;66.96
49315;BME280;36672;50.710;12.498;2023-02-18T12:00:44;98399.84;;;10.26;67.16
49315;BME280;36672;50.710;12.498;2023-02-18T12:05:37;98396.97;;;10.27;67.22
49315;BME280;36672;50.710;12.498;2023-02-18T12:08:10;98384.28;;;10.21;66.50
49315;BME280;36672;50.710;12.498;2023-02-18T12:10:39;98402.97;;;10.23;66.74
49315;BME280;36672;50.710;12.498;2023-02-18T12:26:00;98392.50;;;10.55;63.81
49315;BME280;36672;50.710;12.498;2023-02-18T12:28:48;98373.38;;;10.50;63.98
49315;BME280;36672;50.710;12.498;2023-02-18T12:41:45;98350.84;;;11.38;59.28
49315;BME280;36672;50.710;12.498;2023-02-18T12:51:37;98365.81;;;10.93;60.27
49315;BME280;36672;50.710;12.498;2023-02-18T12:54:13;98384.09;;;10.91;59.99
49315;BME280;36672;50.710;12.498;2023-02-18T13:04:25;98357.88;;;10.79;59.99
49315;BME280;36672;50.710;12.498;2023-02-18T13:14:42;98357.47;;;10.95;59.85
49315;BME280;36672;50.710;12.498;2023-02-18T13:17:09;98355.22;;;10.92;59.75
49315;BME280;36672;50.710;12.498;2023-02-18T13:19:43;98348.53;;;10.88;60.78
49315;BME280;36672;50.710;12.498;2023-02-18T13:22:09;98355.59;;;10.75;60.48
49315;BME280;36672;50.710;12.498;2023-02-18T13:24:37;98356.59;;;10.68;61.93
49315;BME280;36672;50.710;12.498;2023-02-18T13:29:33;98380.69;;;10.56;62.15
49315;BME280;36672;50.710;12.498;2023-02-18T13:32:02;98368.03;;;10.56;61.56
49315;BME280;36672;50.710;12.498;2023-02-18T13:34:37;98361.13;;;10.54;61.77
49315;BME280;36672;50.710;12.498;2023-02-18T13:39:52;98341.19;;;10.48;60.77
49315;BME280;36672;50.710;12.498;2023-02-18T13:42:23;98355.31;;;10.50;61.77
49315;BME280;36672;50.710;12.498;2023-02-18T13:48:05;98359.28;;;10.61;62.34
49315;BME280;36672;50.710;12.498;2023-02-18T13:50:15;98364.25;;;10.57;65.08
49315;BME280;36672;50.710;12.498;2023-02-18T13:52:42;98354.03;;;10.46;67.55
49315;BME280;36672;50.710;12.498;2023-02-18T13:55:18;98366.41;;;10.27;68.84
49315;BME280;36672;50.710;12.498;2023-02-18T13:57:45;98362.81;;;10.13;69.16
49315;BME280;36672;50.710;12.498;2023-02-18T14:00:19;98379.59;;;10.02;69.47
49315;BME280;36672;50.710;12.498;2023-02-18T14:02:55;98370.25;;;10.04;69.03
49315;BME280;36672;50.710;12.498;2023-02-18T14:05:21;98368.19;;;10.00;68.23
49315;BME280;36672;50.710;12.498;2023-02-18T14:07:50;98365.47;;;10.00;67.50
49315;BME280;36672;50.710;12.498;2023-02-18T14:13:02;98365.63;;;9.91;66.15
49315;BME280;36672;50.710;12.498;2023-02-18T14:22:56;98362.34;;;9.96;66.24
49315;BME280;36672;50.710;12.498;2023-02-18T14:25:26;98360.25;;;9.98;66.29
49315;BME280;36672;50.710;12.498;2023-02-18T14:28:00;98359.22;;;9.99;65.95
49315;BME280;36672;50.710;12.498;2023-02-18T14:30:38;98368.78;;;10.02;64.96
49315;BME280;36672;50.710;12.498;2023-02-18T14:33:04;98359.06;;;10.07;65.25
49315;BME280;36672;50.710;12.498;2023-02-18T14:35:37;98364.94;;;10.18;65.44
49315;BME280;36672;50.710;12.498;2023-02-18T14:38:16;98371.59;;;10.22;65.07
49315;BME280;36672;50.710;12.498;2023-02-18T14:40:51;98364.13;;;10.17;64.06
49315;BME280;36672;50.710;12.498;2023-02-18T14:50:47;98375.72;;;10.11;63.95
49315;BME280;36672;50.710;12.498;2023-02-18T14:53:14;98379.44;;;10.10;64.14
49315;BME280;36672;50.710;12.498;2023-02-18T14:55:48;98378.59;;;10.09;64.20
49315;BME280;36672;50.710;12.498;2023-02-18T14:58:24;98394.78;;;10.09;64.52
49315;BME280;36672;50.710;12.498;2023-02-18T15:00:52;98402.88;;;10.09;64.95
49315;BME280;36672;50.710;12.498;2023-02-18T15:03:18;98391.25;;;10.09;64.99
49315;BME280;36672;50.710;12.498;2023-02-18T15:05:46;98407.69;;;10.14;64.43
49315;BME280;36672;50.710;12.498;2023-02-18T15:10:45;98408.72;;;10.13;64.82
49315;BME280;36672;50.710;12.498;2023-02-18T15:13:22;98406.44;;;10.10;65.12
49315;BME280;36672;50.710;12.498;2023-02-18T15:15:51;98416.63;;;10.15;65.45
49315;BME280;36672;50.710;12.498;2023-02-18T15:19:00;98420.16;;;10.15;64.87
49315;BME280;36672;50.710;12.498;2023-02-18T15:21:16;98423.50;;;10.17;65.12
49315;BME280;36672;50.710;12.498;2023-02-18T15:23:43;98422.28;;;10.20;65.36